createdAt,value
2023-01-04T00:00:18.995Z,66.74
2023-01-04T00:02:45.787Z,65.93
2023-01-04T00:05:12.565Z,66.69
2023-01-04T00:07:39.196Z,66.81
2023-01-04T00:10:06.096Z,66.36
2023-01-04T00:12:34.817Z,66.17
2023-01-04T00:15:01.438Z,66.51
2023-01-04T00:17:28.024Z,66.47
2023-01-04T00:19:54.628Z,68.67
2023-01-04T00:22:21.297Z,68.01
2023-01-04T00:24:47.915Z,67.56
2023-01-04T00:27:14.537Z,67.07
2023-01-04T00:29:41.135Z,67.79
2023-01-04T00:32:07.837Z,67.48
2023-01-04T00:34:34.436Z,67.51
2023-01-04T00:37:01.037Z,67.69
2023-01-04T00:39:27.719Z,67.67
2023-01-04T00:41:59.822Z,67.77
2023-01-04T00:44:28.392Z,68.00
2023-01-04T00:46:57.615Z,68.40
2023-01-04T00:49:25.236Z,67.51
2023-01-04T00:51:52.033Z,66.91
2023-01-04T00:54:19.119Z,67.87
2023-01-04T00:56:45.751Z,68.05
2023-01-04T00:59:15.082Z,67.99
2023-01-04T01:01:42.975Z,67.53
2023-01-04T01:04:13.458Z,68.08
2023-01-04T01:06:40.569Z,68.11
2023-01-04T01:09:08.200Z,69.01
2023-01-04T01:11:35.011Z,69.22
2023-01-04T01:14:01.625Z,69.10
2023-01-04T01:16:53.921Z,68.66
2023-01-04T01:19:16.715Z,68.62
2023-01-04T01:21:43.387Z,68.83
2023-01-04T01:24:18.702Z,68.46
2023-01-04T01:26:45.732Z,68.26
2023-01-04T01:29:12.526Z,68.75
2023-01-04T01:31:41.169Z,69.47
2023-01-04T01:34:08.243Z,69.53
2023-01-04T01:36:36.536Z,68.81
2023-01-04T01:39:03.306Z,68.15
2023-01-04T01:41:35.382Z,68.35
2023-01-04T01:44:06.647Z,68.38
2023-01-04T01:46:50.460Z,68.78
2023-01-04T01:49:32.309Z,68.89
2023-01-04T01:52:03.840Z,68.69
2023-01-04T01:54:36.965Z,68.98
2023-01-04T01:57:07.332Z,70.31
2023-01-04T01:59:40.458Z,70.72
2023-01-04T02:02:08.490Z,69.87
2023-01-04T02:04:41.504Z,69.44
2023-01-04T02:07:11.999Z,70.32
2023-01-04T02:09:40.672Z,70.79
2023-01-04T02:12:11.775Z,69.90
2023-01-04T02:14:40.621Z,69.48
2023-01-04T02:17:16.180Z,68.78
2023-01-04T02:20:04.200Z,69.97
2023-01-04T02:22:33.510Z,69.48
2023-01-04T02:25:54.224Z,69.09
2023-01-04T02:28:39.021Z,68.15
2023-01-04T02:31:24.643Z,68.90
2023-01-04T02:34:13.164Z,70.04
2023-01-04T02:36:51.975Z,70.65
2023-01-04T02:39:48.835Z,71.17
2023-01-04T02:42:27.405Z,69.88
2023-01-04T02:45:04.754Z,68.34
2023-01-04T02:47:36.681Z,68.25
2023-01-04T02:50:17.411Z,69.47
2023-01-04T02:52:44.151Z,69.17
2023-01-04T02:55:11.010Z,69.21
2023-01-04T02:58:00.357Z,68.44
2023-01-04T03:00:54.545Z,68.79
2023-01-04T03:03:34.170Z,68.38
2023-01-04T03:06:16.321Z,68.82
2023-01-04T03:08:54.988Z,69.48
2023-01-04T03:11:21.863Z,68.63
2023-01-04T03:13:48.917Z,69.64
2023-01-04T03:16:23.096Z,69.52
2023-01-04T03:18:56.194Z,72.34
2023-01-04T03:21:27.043Z,74.68
2023-01-04T03:24:00.484Z,72.96
2023-01-04T03:26:34.022Z,72.34
2023-01-04T03:29:16.005Z,73.21
2023-01-04T03:32:06.696Z,73.07
2023-01-04T03:34:33.876Z,71.34
2023-01-04T03:37:15.748Z,71.30
2023-01-04T03:40:01.182Z,70.45
2023-01-04T03:42:42.273Z,70.92
2023-01-04T03:45:17.948Z,70.54
2023-01-04T03:48:23.122Z,70.09
2023-01-04T03:50:58.635Z,70.03
2023-01-04T03:53:27.397Z,69.69
2023-01-04T03:55:58.305Z,70.88
2023-01-04T03:58:25.846Z,70.37
2023-01-04T04:00:52.729Z,70.48
2023-01-04T04:03:19.389Z,73.39
2023-01-04T04:05:48.084Z,71.04
2023-01-04T04:08:14.719Z,70.62
2023-01-04T04:10:41.348Z,69.91
2023-01-04T04:13:07.974Z,70.17
2023-01-04T04:15:35.639Z,69.50
2023-01-04T04:18:02.281Z,68.61
2023-01-04T04:20:28.935Z,69.20
2023-01-04T04:22:55.542Z,68.46
2023-01-04T04:25:22.150Z,68.74
2023-01-04T04:27:48.885Z,68.82
2023-01-04T04:30:15.580Z,68.44
2023-01-04T04:32:42.704Z,68.52
2023-01-04T04:35:10.039Z,68.73
2023-01-04T04:37:36.653Z,69.39
2023-01-04T04:40:05.000Z,68.60
2023-01-04T04:42:31.664Z,67.99
2023-01-04T04:44:58.291Z,70.02
2023-01-04T04:47:24.946Z,72.41
2023-01-04T04:49:51.832Z,73.75
2023-01-04T04:52:18.438Z,72.42
2023-01-04T04:54:45.067Z,70.91
2023-01-04T04:57:11.656Z,70.00
2023-01-04T04:59:38.243Z,70.99
2023-01-04T05:02:05.005Z,72.97
2023-01-04T05:04:31.748Z,73.19
2023-01-04T05:06:58.384Z,72.78
2023-01-04T05:09:25.058Z,72.22
2023-01-04T05:11:51.737Z,72.64
2023-01-04T05:14:18.423Z,72.93
2023-01-04T05:16:45.172Z,71.58
2023-01-04T05:19:11.852Z,70.94
2023-01-04T05:21:38.518Z,70.74
2023-01-04T05:24:05.361Z,69.80
2023-01-04T05:26:32.171Z,69.90
2023-01-04T05:28:58.862Z,72.42
2023-01-04T05:31:26.137Z,72.93
2023-01-04T05:33:52.755Z,72.01
2023-01-04T05:36:19.360Z,71.43
2023-01-04T05:38:46.060Z,70.75
2023-01-04T05:41:12.649Z,69.73
2023-01-04T05:43:39.298Z,69.76
2023-01-04T05:46:05.988Z,69.92
2023-01-04T05:48:32.606Z,70.30
2023-01-04T05:50:59.204Z,69.31
2023-01-04T05:53:25.816Z,68.76
2023-01-04T05:55:52.647Z,68.47
2023-01-04T05:58:19.342Z,68.99
2023-01-04T06:00:45.954Z,68.66
2023-01-04T06:03:12.708Z,68.90
2023-01-04T06:05:39.442Z,72.45
2023-01-04T06:08:06.394Z,74.71
2023-01-04T06:10:33.312Z,75.19
2023-01-04T06:12:59.943Z,73.97
2023-01-04T06:15:26.599Z,73.29
2023-01-04T06:17:53.211Z,72.10
2023-01-04T06:20:19.888Z,70.85
2023-01-04T06:22:46.576Z,69.90
2023-01-04T06:25:13.212Z,70.56
2023-01-04T06:27:39.847Z,69.32
2023-01-04T06:30:07.018Z,69.05
2023-01-04T06:32:33.850Z,68.92
2023-01-04T06:35:00.496Z,68.66
2023-01-04T06:37:27.709Z,68.45
2023-01-04T06:39:54.381Z,70.49
2023-01-04T06:42:21.026Z,69.95
2023-01-04T06:44:47.681Z,72.27
2023-01-04T06:47:14.319Z,70.04
2023-01-04T06:49:40.951Z,68.62
2023-01-04T06:52:07.643Z,68.16
2023-01-04T06:54:34.299Z,68.33
2023-01-04T06:57:00.888Z,69.33
2023-01-04T06:59:27.491Z,68.65
2023-01-04T07:01:54.353Z,71.14
2023-01-04T07:04:21.269Z,70.06
2023-01-04T07:06:47.939Z,72.48
2023-01-04T07:09:14.616Z,72.83
2023-01-04T07:11:41.258Z,72.18
2023-01-04T07:14:07.890Z,71.80
2023-01-04T07:16:34.534Z,70.70
2023-01-04T07:19:01.351Z,72.35
2023-01-04T07:21:28.654Z,72.32
2023-01-04T07:23:56.581Z,71.27
2023-01-04T07:26:23.411Z,72.79
2023-01-04T07:28:50.295Z,71.55
2023-01-04T07:31:16.957Z,72.71
2023-01-04T07:33:44.150Z,73.55
2023-01-04T07:36:10.936Z,74.46
2023-01-04T07:38:37.688Z,73.78
2023-01-04T07:41:04.443Z,74.79
2023-01-04T07:43:31.181Z,72.69
2023-01-04T07:45:58.032Z,73.14
2023-01-04T07:48:24.804Z,72.61
2023-01-04T07:50:51.482Z,71.92
2023-01-04T07:53:18.147Z,73.35
2023-01-04T07:55:45.069Z,74.14
2023-01-04T07:58:12.512Z,74.06
2023-01-04T08:00:39.293Z,73.87
2023-01-04T08:03:05.997Z,73.67
2023-01-04T08:05:34.599Z,71.90
2023-01-04T08:08:01.688Z,73.13
2023-01-04T08:10:28.395Z,71.83
2023-01-04T08:12:58.131Z,72.00
2023-01-04T08:15:24.784Z,70.55
2023-01-04T08:17:51.449Z,72.34
2023-01-04T08:20:18.739Z,72.08
2023-01-04T08:22:45.383Z,70.16
2023-01-04T08:25:12.039Z,69.02
2023-01-04T08:27:38.667Z,68.42
2023-01-04T08:30:05.787Z,67.43
2023-01-04T08:32:32.438Z,67.39
2023-01-04T08:34:59.266Z,68.21
2023-01-04T08:37:25.901Z,70.06
2023-01-04T08:39:52.563Z,70.05
2023-01-04T08:42:25.171Z,70.27
2023-01-04T08:44:59.937Z,73.55
2023-01-04T08:47:28.251Z,74.58
2023-01-04T08:49:55.933Z,75.09
2023-01-04T08:52:23.059Z,76.52
2023-01-04T08:54:50.105Z,75.32
2023-01-04T08:57:19.937Z,74.23
2023-01-04T08:59:46.721Z,73.46
2023-01-04T09:02:23.271Z,72.82
2023-01-04T09:04:50.828Z,74.82
2023-01-04T09:07:18.145Z,73.50
2023-01-04T09:09:44.828Z,73.80
2023-01-04T09:12:11.491Z,73.96
2023-01-04T09:14:41.000Z,72.69
2023-01-04T09:17:07.672Z,75.31
2023-01-04T09:19:34.614Z,73.01
2023-01-04T09:22:01.746Z,74.24
2023-01-04T09:24:28.456Z,72.95
2023-01-04T09:26:55.177Z,72.91
2023-01-04T09:29:21.910Z,73.48
2023-01-04T09:31:48.640Z,71.14
2023-01-04T09:34:17.476Z,70.14
2023-01-04T09:36:46.348Z,70.52
2023-01-04T09:39:21.835Z,70.58
2023-01-04T09:42:01.676Z,69.53
2023-01-04T09:47:51.991Z,68.55
2023-01-04T09:50:36.520Z,67.70
2023-01-04T09:53:12.176Z,72.30
2023-01-04T09:55:44.325Z,70.72
2023-01-04T09:58:23.578Z,71.26
2023-01-04T10:01:19.511Z,69.80
2023-01-04T10:04:05.995Z,69.53
2023-01-04T10:06:34.605Z,68.65
2023-01-04T10:09:06.355Z,68.85
2023-01-04T10:11:54.913Z,67.00
2023-01-04T10:15:00.723Z,66.54
2023-01-04T10:19:50.509Z,67.95
2023-01-04T10:24:02.811Z,67.47
2023-01-04T10:26:40.252Z,69.13
2023-01-04T10:29:13.052Z,67.37
2023-01-04T10:32:15.174Z,65.67
2023-01-04T10:34:44.757Z,63.90
2023-01-04T10:37:25.013Z,65.21
2023-01-04T10:39:54.134Z,64.65
2023-01-04T10:42:20.765Z,66.91
2023-01-04T10:45:09.352Z,65.22
2023-01-04T10:47:53.165Z,66.61
2023-01-04T10:50:25.082Z,66.03
2023-01-04T10:53:02.653Z,67.22
2023-01-04T10:56:26.094Z,66.66
2023-01-04T10:58:55.334Z,68.76
2023-01-04T11:01:47.061Z,67.31
2023-01-04T11:04:29.507Z,68.74
2023-01-04T11:07:07.511Z,68.70
2023-01-04T11:09:46.512Z,68.41
2023-01-04T11:12:17.925Z,66.37
2023-01-04T11:14:44.902Z,66.26
2023-01-04T11:17:13.029Z,66.72
2023-01-04T11:19:41.173Z,66.25
2023-01-04T11:22:24.195Z,67.42
2023-01-04T11:28:08.004Z,65.50
2023-01-04T11:31:02.018Z,62.74
2023-01-04T11:33:28.792Z,63.82
2023-01-04T11:35:57.878Z,62.91
2023-01-04T11:38:30.632Z,61.36
2023-01-04T11:40:57.882Z,61.57
2023-01-04T11:43:26.665Z,60.71
2023-01-04T11:46:05.530Z,62.17
2023-01-04T11:48:36.582Z,61.45
2023-01-04T11:51:04.752Z,63.33
2023-01-04T11:53:37.086Z,62.66
2023-01-04T11:56:13.172Z,63.72
2023-01-04T11:58:41.777Z,63.34
2023-01-04T12:01:29.124Z,62.84
2023-01-04T12:03:56.076Z,62.99
2023-01-04T12:06:38.472Z,62.52
2023-01-04T12:09:05.805Z,63.33
2023-01-04T12:11:36.601Z,63.19
2023-01-04T12:14:04.198Z,63.15
2023-01-04T12:16:57.597Z,63.94
2023-01-04T12:19:26.138Z,63.61
2023-01-04T12:21:57.093Z,63.98
2023-01-04T12:24:30.877Z,63.15
2023-01-04T12:26:58.608Z,61.91
2023-01-04T12:29:25.249Z,62.43
2023-01-04T12:31:52.773Z,61.57
2023-01-04T12:34:22.059Z,61.85
2023-01-04T12:36:51.363Z,63.33
2023-01-04T12:39:20.821Z,61.71
2023-01-04T12:41:47.446Z,62.96
2023-01-04T12:44:38.847Z,61.98
2023-01-04T12:47:17.711Z,62.60
2023-01-04T12:49:59.210Z,62.35
2023-01-04T12:52:48.024Z,63.14
2023-01-04T12:55:27.396Z,63.05
2023-01-04T12:57:54.184Z,64.37
2023-01-04T13:00:20.825Z,64.21
2023-01-04T13:03:16.337Z,63.35
2023-01-04T13:06:02.418Z,64.06
2023-01-04T13:08:30.343Z,64.25
2023-01-04T13:11:04.025Z,63.48
2023-01-04T13:13:49.179Z,63.67
2023-01-04T13:16:50.777Z,62.56
2023-01-04T13:19:26.372Z,64.47
2023-01-04T13:21:57.016Z,64.98
2023-01-04T13:24:33.289Z,63.00
2023-01-04T13:27:18.195Z,63.65
2023-01-04T13:29:46.488Z,62.49
2023-01-04T13:32:21.411Z,64.10
2023-01-04T13:34:57.119Z,62.87
2023-01-04T13:37:26.980Z,63.81
2023-01-04T13:40:21.677Z,62.46
2023-01-04T13:42:57.745Z,60.86
2023-01-04T13:45:49.229Z,60.97
2023-01-04T13:48:20.626Z,59.92
2023-01-04T13:51:03.875Z,59.53
2023-01-04T13:53:32.570Z,60.85
2023-01-04T13:56:01.778Z,60.44
2023-01-04T13:58:34.433Z,63.03
2023-01-04T14:01:06.818Z,62.21
2023-01-04T14:03:56.706Z,63.95
2023-01-04T14:06:39.847Z,61.91
2023-01-04T14:09:14.815Z,61.77
2023-01-04T14:12:08.515Z,61.42
2023-01-04T14:14:38.258Z,61.04
2023-01-04T14:17:14.789Z,60.97
2023-01-04T14:19:59.444Z,63.58
2023-01-04T14:22:28.093Z,62.97
2023-01-04T14:25:08.925Z,63.76
2023-01-04T14:27:42.837Z,64.93
2023-01-04T14:30:24.166Z,64.55
2023-01-04T14:33:14.053Z,63.76
2023-01-04T14:35:46.457Z,65.06
2023-01-04T14:38:22.145Z,65.19
2023-01-04T14:40:48.832Z,65.74
2023-01-04T14:43:35.012Z,65.04
2023-01-04T14:46:04.486Z,64.15
2023-01-04T14:48:31.346Z,63.70
2023-01-04T14:51:00.557Z,64.43
2023-01-04T14:53:28.025Z,63.22
2023-01-04T14:55:55.211Z,63.02
2023-01-04T14:58:22.104Z,64.05
2023-01-04T15:00:48.927Z,64.63
2023-01-04T15:03:15.861Z,65.13
2023-01-04T15:05:47.110Z,64.21
2023-01-04T15:08:13.757Z,65.13
2023-01-04T15:10:40.471Z,64.88
2023-01-04T15:13:07.145Z,65.93
2023-01-04T15:15:33.888Z,66.15
2023-01-04T15:18:00.588Z,64.08
2023-01-04T15:20:27.263Z,64.15
2023-01-04T15:22:54.090Z,63.35
2023-01-04T15:25:20.936Z,62.82
2023-01-04T15:27:47.645Z,62.80
2023-01-04T15:30:14.871Z,62.17
2023-01-04T15:32:42.008Z,63.19
2023-01-04T15:35:09.125Z,61.75
2023-01-04T15:37:35.818Z,63.11
2023-01-04T15:40:04.061Z,63.37
2023-01-04T15:42:31.091Z,63.82
2023-01-04T15:44:57.869Z,63.48
2023-01-04T15:47:24.552Z,62.82
2023-01-04T15:49:51.161Z,63.86
2023-01-04T15:52:17.752Z,64.16
2023-01-04T15:54:44.373Z,64.67
2023-01-04T15:57:11.078Z,64.11
2023-01-04T15:59:37.789Z,65.68
2023-01-04T16:02:04.448Z,66.37
2023-01-04T16:04:31.330Z,66.61
2023-01-04T16:06:58.572Z,65.50
2023-01-04T16:09:25.307Z,64.30
2023-01-04T16:11:51.963Z,66.18
2023-01-04T16:14:18.587Z,63.92
2023-01-04T16:16:45.260Z,62.66
2023-01-04T16:19:11.986Z,63.61
2023-01-04T16:21:38.614Z,63.50
2023-01-04T16:24:22.159Z,62.39
2023-01-04T16:26:52.189Z,63.72
2023-01-04T16:29:18.806Z,62.95
2023-01-04T16:31:45.567Z,64.52
2023-01-04T16:34:13.619Z,64.24
2023-01-04T16:36:40.334Z,63.90
2023-01-04T16:39:07.783Z,62.33
2023-01-04T16:41:34.738Z,62.23
2023-01-04T16:44:05.187Z,61.82
2023-01-04T16:46:34.157Z,61.27
2023-01-04T16:49:03.913Z,61.29
2023-01-04T16:51:33.813Z,60.67
2023-01-04T16:54:07.127Z,62.69
2023-01-04T16:56:34.707Z,61.98
2023-01-04T16:59:02.094Z,62.38
2023-01-04T17:01:34.492Z,63.03
2023-01-04T17:04:04.382Z,64.16
2023-01-04T17:06:34.619Z,64.76
2023-01-04T17:09:01.611Z,64.81
2023-01-04T17:14:17.281Z,65.87
2023-01-04T17:16:43.915Z,64.40
2023-01-04T17:19:10.604Z,63.84
2023-01-04T17:21:37.434Z,63.38
2023-01-04T17:24:04.170Z,63.04
2023-01-04T17:26:32.622Z,62.47
2023-01-04T17:29:01.440Z,61.06
2023-01-04T17:31:33.651Z,60.80
2023-01-04T17:34:00.738Z,62.15
2023-01-04T17:36:27.681Z,63.52
2023-01-04T17:38:54.637Z,62.81
2023-01-04T17:41:24.437Z,62.07
2023-01-04T17:43:55.472Z,61.20
2023-01-04T17:46:23.777Z,61.69
2023-01-04T17:49:17.810Z,62.41
2023-01-04T17:51:39.434Z,63.15
2023-01-04T17:54:07.056Z,64.21
2023-01-04T17:56:34.093Z,63.39
2023-01-04T17:59:02.904Z,61.69
2023-01-04T18:01:30.696Z,61.21
2023-01-04T18:03:59.096Z,61.07
2023-01-04T18:06:29.610Z,61.09
2023-01-04T18:08:57.431Z,61.25
2023-01-04T18:11:25.256Z,60.66
2023-01-04T18:13:52.716Z,60.11
2023-01-04T18:16:25.595Z,60.47
2023-01-04T18:18:54.966Z,61.27
2023-01-04T18:21:28.302Z,61.99
2023-01-04T18:29:32.957Z,61.31
2023-01-04T18:31:59.723Z,60.90
2023-01-04T18:34:26.643Z,61.58
2023-01-04T18:36:53.834Z,62.28
2023-01-04T18:39:20.536Z,62.97
2023-01-04T18:41:47.235Z,62.87
2023-01-04T18:44:32.064Z,63.90
2023-01-04T18:46:59.816Z,64.70
2023-01-04T18:49:26.510Z,64.11
2023-01-04T18:51:53.144Z,64.89
2023-01-04T18:54:19.825Z,64.49
2023-01-04T18:56:47.240Z,65.09
2023-01-04T18:59:14.680Z,64.29
2023-01-04T19:01:41.397Z,63.73
2023-01-04T19:04:08.184Z,63.49
2023-01-04T19:06:34.785Z,63.90
2023-01-04T19:09:06.281Z,63.78
2023-01-04T19:11:33.562Z,63.99
2023-01-04T19:14:03.383Z,63.33
2023-01-04T19:16:30.129Z,63.31
2023-01-04T19:19:00.742Z,62.34
2023-01-04T19:21:28.016Z,62.02
2023-01-04T19:23:54.956Z,61.17
2023-01-04T19:26:23.139Z,60.30
2023-01-04T19:28:50.602Z,61.20
2023-01-04T19:31:19.966Z,60.94
2023-01-04T19:33:47.078Z,60.70
2023-01-04T19:36:16.409Z,60.09
2023-01-04T19:38:43.039Z,60.76
2023-01-04T19:41:18.675Z,60.27
2023-01-04T19:43:45.453Z,62.42
2023-01-04T19:46:12.809Z,62.03
2023-01-04T19:48:40.061Z,62.00
2023-01-04T19:51:16.946Z,61.92
2023-01-04T19:53:44.395Z,62.05
2023-01-04T19:56:12.928Z,61.20
2023-01-04T19:58:40.736Z,60.89
2023-01-04T20:01:12.298Z,63.17
2023-01-04T20:03:39.197Z,62.21
2023-01-04T20:06:08.247Z,62.35
2023-01-04T20:08:34.945Z,62.73
2023-01-04T20:11:02.409Z,63.81
2023-01-04T20:13:30.700Z,64.06
2023-01-04T20:15:59.588Z,64.07
2023-01-04T20:18:27.131Z,64.75
2023-01-04T20:20:53.789Z,65.44
2023-01-04T20:23:21.714Z,64.59
2023-01-04T20:25:51.778Z,65.41
2023-01-04T20:28:21.218Z,65.61
2023-01-04T20:30:48.172Z,67.60
2023-01-04T20:33:15.172Z,67.70
2023-01-04T20:35:44.139Z,67.27
2023-01-04T20:38:12.262Z,68.59
2023-01-04T20:40:39.512Z,69.26
2023-01-04T20:43:06.507Z,67.62
2023-01-04T20:45:33.104Z,67.38
2023-01-04T20:47:59.804Z,66.80
2023-01-04T20:50:27.715Z,66.90
2023-01-04T20:52:54.367Z,65.96
2023-01-04T20:55:21.000Z,65.60
2023-01-04T20:57:47.608Z,64.99
2023-01-04T21:00:14.863Z,65.25
2023-01-04T21:02:41.708Z,65.48
2023-01-04T21:05:08.979Z,64.94
2023-01-04T21:07:35.646Z,64.11
2023-01-04T21:10:02.358Z,64.15
2023-01-04T21:12:29.013Z,65.30
2023-01-04T21:14:55.639Z,65.35
2023-01-04T21:17:22.350Z,66.67
2023-01-04T21:19:49.015Z,66.25
2023-01-04T21:22:15.685Z,66.07
2023-01-04T21:24:42.366Z,66.29
2023-01-04T21:27:09.049Z,66.25
2023-01-04T21:29:35.725Z,66.16
2023-01-04T21:32:02.349Z,67.56
2023-01-04T21:34:29.008Z,65.68
2023-01-04T21:36:55.655Z,64.43
2023-01-04T21:39:22.271Z,64.42
2023-01-04T21:41:48.938Z,63.37
2023-01-04T21:44:15.622Z,63.83
2023-01-04T21:46:42.355Z,63.34
2023-01-04T21:49:09.150Z,63.13
2023-01-04T21:51:35.755Z,63.73
2023-01-04T21:54:02.401Z,64.25
2023-01-04T21:56:29.153Z,64.69
2023-01-04T21:58:55.813Z,65.75
2023-01-04T22:01:29.644Z,67.49
2023-01-04T22:03:59.591Z,65.96
2023-01-04T22:06:26.351Z,66.99
2023-01-04T22:08:53.355Z,68.29
2023-01-04T22:11:20.673Z,67.80
2023-01-04T22:13:47.316Z,68.49
2023-01-04T22:16:16.726Z,69.19
2023-01-04T22:18:50.424Z,70.80
2023-01-04T22:21:19.804Z,69.89
2023-01-04T22:23:46.498Z,70.28
2023-01-04T22:26:13.237Z,69.62
2023-01-04T22:28:40.675Z,71.36
2023-01-04T22:31:11.047Z,71.31
2023-01-04T22:33:38.618Z,70.45
2023-01-04T22:36:21.956Z,69.96
2023-01-04T22:38:53.860Z,70.79
2023-01-04T22:41:22.425Z,72.60
2023-01-04T22:43:57.334Z,72.70
2023-01-04T22:46:25.830Z,70.76
2023-01-04T22:48:52.716Z,69.92
2023-01-04T22:51:20.914Z,69.89
2023-01-04T22:53:48.249Z,70.01
2023-01-04T22:56:19.386Z,70.81
2023-01-04T22:58:52.369Z,69.58
2023-01-04T23:01:21.929Z,69.19
2023-01-04T23:03:48.952Z,68.16
2023-01-04T23:06:15.875Z,69.90
2023-01-04T23:08:42.644Z,70.00
2023-01-04T23:11:13.139Z,71.02
2023-01-04T23:13:40.398Z,70.39
2023-01-04T23:16:10.427Z,68.92
2023-01-04T23:18:37.560Z,69.19
2023-01-04T23:21:05.392Z,67.18
2023-01-04T23:23:32.947Z,67.20
2023-01-04T23:26:09.055Z,66.86
2023-01-04T23:28:35.738Z,68.15
2023-01-04T23:31:08.692Z,67.61
2023-01-04T23:33:36.673Z,68.04
2023-01-04T23:36:28.188Z,69.53
2023-01-04T23:38:57.067Z,67.80
2023-01-04T23:41:24.526Z,67.48
2023-01-04T23:43:51.178Z,69.20
2023-01-04T23:46:17.899Z,68.69
2023-01-04T23:48:44.783Z,67.59
2023-01-04T23:51:15.081Z,67.81
2023-01-04T23:53:41.912Z,67.63
2023-01-04T23:56:15.548Z,68.95
2023-01-04T23:58:42.579Z,70.03
